Terminal Aerodrome Forecast
Issued by NWS

Home | Current Version | Previous Version | Text Only | Print | Product List | Glossary On
Versions: 1 2 3 4 5 6 7 8 9 10 11 12 13 14
000
FTUS43 KOAX 302320
TAFSNY
TAF
KSNY 302320Z 3100/3124 32012G24KT P6SM VCTS BKN100CB
     FM310200 01008KT P6SM BKN100
     FM310800 25008KT P6SM SCT100
     FM311500 30016G27KT P6SM SCT100
     FM312000 32020G32KT P6SM SCT100=

USA.gov is the U.S. government's official web portal to all federal, state and local government web resources and services.